Portada
METAR-TAF:

METAR-TAF

Aeropuertos :

Monte Cimone, Italia

latitud: 44-12N, longitud: 010-42E, altitud: 2165 m

Observación

El informe se hizo hace 1 hora y 7 minutos, a las 19:55 UTC
Viento 8 kt del oeste
Temperatura 2°C
Humedad 35%
Presión 1029 hPa

METAR: LIVC 031955Z AUTO 27008KT //// 02/M12 Q1029

Hora: 22:02 (21:02 UTC)


TAF: falta

Observaciones y pronósticos meteorológicos de más de 4000 aeropuertos (mensajes METAR y TAF).

Los puntos amarillos y rojos representan las estaciones disponibles.

Ponga el ratón en el punto deseado para ver el nombre de la estación.

Haga clic para ver las observaciones y los pronósticos meteorológicos.

Para cambiar el mapa : haga clic en los botones verdes con una cruz de color negro para hacer un zoom, en el botón verde con un guión para alejar o en las flechas verdes para mapas adyacentes.


METAR-TAF: